Kezdőlap
METAR-TAF:

METAR-TAF

Repülőterek :

Logan County Airport

Lincoln, Illinois, Amerikai Egyesült Államok

földrajzi szélesség: 40-09-31N, földrajzi hosszúság: 089-20-06W, magasság: 182 m

Jelenlegi meteorológiai megfigyelések

A jelentés 29 perccel ezelõtt készült, 07:35 UTC
Déli szél 4 kt
Hőmérséklet 24°C
Páratartalom 89%
Légköri nyomás 1015 hPa
Látótávolság: 16.1 km
Szakadozott felhőzet 5500 lábon
Borult 7500 lábon

METAR: KAAA 100735Z AUTO 17004KT 10SM BKN055 OVC075 24/22 A2998 RMK AO2 T02350221

Idő: 03:04 (08:04 UTC)


TAF: hiányzik

Meteorológiai megfigyelések és előrejelzések több, mint 4000 repülőtéren (METAR és TAF jelentéseket).

A térképen piros és sárga pontok jelzik az elérhető meteorológiai állomásokat.

Mozgassa az egeret a pont fölött, hogy megjelenjen az állomás neve.

Azután kattintson az időjárási megfigyelések és előrejelzések megtekintéséhez.

A térkép megváltoztatása: kattintson a fekete keresztel jelölt zöld gombra ráközelítéshez, a vonallal jelölt zöld gombra távolításhoz, vagy a zöld nyilakra a szomszédos térképek eléréséhez.


METAR-TAF: